createdAt,value
2018-07-21T00:00:28.745Z,51.59
2018-07-21T00:02:55.122Z,52.03
2018-07-21T00:05:21.597Z,51.63
2018-07-21T00:07:47.966Z,51.46
2018-07-21T00:10:14.367Z,51.79
2018-07-21T00:12:40.751Z,51.80
2018-07-21T00:15:07.079Z,51.85
2018-07-21T00:17:33.416Z,51.91
2018-07-21T00:19:59.785Z,51.94
2018-07-21T00:22:26.116Z,51.82
2018-07-21T00:24:52.446Z,51.96
2018-07-21T00:27:18.769Z,51.85
2018-07-21T00:29:45.107Z,51.80
2018-07-21T00:32:11.476Z,51.88
2018-07-21T00:34:37.880Z,51.75
2018-07-21T00:37:04.201Z,51.72
2018-07-21T00:39:30.560Z,51.73
2018-07-21T00:41:56.889Z,51.92
2018-07-21T00:44:23.249Z,51.93
2018-07-21T00:46:49.627Z,51.85
2018-07-21T00:49:15.976Z,51.85
2018-07-21T00:51:42.359Z,51.95
2018-07-21T00:54:08.728Z,52.15
2018-07-21T00:56:35.084Z,51.68
2018-07-21T00:59:01.478Z,51.72
2018-07-21T01:01:27.853Z,51.64
2018-07-21T01:03:54.183Z,51.95
2018-07-21T01:06:20.616Z,51.79
2018-07-21T01:08:46.957Z,52.04
2018-07-21T01:11:13.397Z,51.97
2018-07-21T01:13:39.813Z,52.24
2018-07-21T01:16:06.248Z,52.13
2018-07-21T01:18:32.705Z,51.98
2018-07-21T01:20:59.062Z,52.30
2018-07-21T01:23:25.398Z,51.95
2018-07-21T01:25:51.837Z,52.17
2018-07-21T01:28:18.171Z,52.05
2018-07-21T01:30:44.498Z,52.24
2018-07-21T01:33:10.842Z,52.09
2018-07-21T01:35:37.161Z,52.16
2018-07-21T01:38:03.498Z,52.32
2018-07-21T01:40:29.990Z,52.35
2018-07-21T01:42:56.364Z,52.24
2018-07-21T01:45:22.780Z,52.34
2018-07-21T01:47:49.118Z,52.44
2018-07-21T01:50:15.556Z,52.40
2018-07-21T01:52:41.891Z,52.32
2018-07-21T01:55:08.227Z,52.50
2018-07-21T01:57:34.571Z,52.65
2018-07-21T02:00:00.971Z,52.26
2018-07-21T02:02:27.323Z,52.15
2018-07-21T02:04:53.852Z,52.14
2018-07-21T02:07:20.204Z,52.29
2018-07-21T02:09:46.589Z,52.29
2018-07-21T02:12:12.928Z,52.30
2018-07-21T02:14:39.313Z,52.12
2018-07-21T02:17:05.640Z,52.28
2018-07-21T02:19:31.996Z,52.40
2018-07-21T02:21:58.340Z,52.49
2018-07-21T02:24:24.663Z,52.46
2018-07-21T02:26:51.006Z,52.35
2018-07-21T02:29:17.323Z,52.44
2018-07-21T02:31:43.704Z,52.62
2018-07-21T02:34:10.036Z,52.39
2018-07-21T02:36:36.402Z,52.36
2018-07-21T02:39:02.778Z,52.61
2018-07-21T02:41:29.159Z,52.40
2018-07-21T02:43:55.488Z,52.63
2018-07-21T02:46:21.856Z,52.44
2018-07-21T02:48:48.187Z,52.25
2018-07-21T02:51:14.567Z,52.25
2018-07-21T02:53:40.892Z,52.48
2018-07-21T02:56:07.305Z,52.30
2018-07-21T02:58:33.706Z,52.44
2018-07-21T03:01:00.053Z,52.44
2018-07-21T03:03:26.579Z,52.57
2018-07-21T03:05:52.940Z,52.35
2018-07-21T03:08:19.308Z,52.27
2018-07-21T03:10:45.792Z,52.50
2018-07-21T03:13:12.194Z,52.46
2018-07-21T03:15:38.580Z,52.46
2018-07-21T03:18:05.098Z,52.33
2018-07-21T03:20:31.631Z,52.55
2018-07-21T03:22:57.996Z,52.35
2018-07-21T03:25:24.337Z,52.72
2018-07-21T03:27:50.723Z,52.58
2018-07-21T03:30:17.103Z,52.26
2018-07-21T03:32:43.508Z,52.15
2018-07-21T03:35:09.882Z,52.24
2018-07-21T03:37:36.218Z,51.75
2018-07-21T03:40:02.560Z,51.59
2018-07-21T03:42:28.937Z,52.00
2018-07-21T03:44:55.313Z,51.59
2018-07-21T03:47:21.645Z,51.84
2018-07-21T03:49:48.006Z,51.42
2018-07-21T03:52:14.332Z,51.55
2018-07-21T03:54:40.718Z,51.49
2018-07-21T03:57:07.186Z,51.23
2018-07-21T03:59:33.520Z,51.27
2018-07-21T04:01:59.882Z,51.17
2018-07-21T04:04:26.364Z,50.94
2018-07-21T04:06:52.754Z,51.79
2018-07-21T04:09:19.082Z,51.04
2018-07-21T04:11:45.471Z,50.85
2018-07-21T04:14:11.783Z,50.51
2018-07-21T04:16:38.198Z,50.75
2018-07-21T04:19:04.568Z,50.93
2018-07-21T04:21:30.887Z,51.85
2018-07-21T04:23:57.231Z,52.11
2018-07-21T04:26:23.572Z,51.35
2018-07-21T04:28:49.890Z,51.06
2018-07-21T04:31:16.289Z,51.53
2018-07-21T04:33:42.611Z,51.28
2018-07-21T04:36:08.971Z,51.07
2018-07-21T04:38:35.300Z,51.42
2018-07-21T04:41:01.828Z,51.74
2018-07-21T04:43:28.154Z,51.66
2018-07-21T04:45:54.470Z,51.16
2018-07-21T04:48:20.862Z,51.11
2018-07-21T04:50:47.884Z,50.79
2018-07-21T04:53:14.211Z,50.40
2018-07-21T04:55:40.585Z,50.43
2018-07-21T04:58:06.904Z,51.59
2018-07-21T05:00:33.371Z,50.70
2018-07-21T05:02:59.710Z,50.23
2018-07-21T05:05:26.171Z,50.15
2018-07-21T05:07:52.508Z,50.00
2018-07-21T05:10:18.844Z,49.98
2018-07-21T05:12:45.172Z,49.38
2018-07-21T05:15:11.552Z,49.13
2018-07-21T05:17:37.859Z,49.12
2018-07-21T05:20:04.267Z,49.60
2018-07-21T05:22:30.598Z,49.40
2018-07-21T05:24:56.929Z,49.11
2018-07-21T05:27:23.335Z,49.02
2018-07-21T05:29:49.696Z,49.06
2018-07-21T05:32:16.028Z,49.11
2018-07-21T05:34:42.412Z,48.87
2018-07-21T05:37:08.754Z,48.92
2018-07-21T05:39:35.082Z,48.85
2018-07-21T05:42:01.401Z,48.78
2018-07-21T05:44:27.731Z,48.57
2018-07-21T05:46:54.058Z,48.66
2018-07-21T05:49:20.492Z,48.60
2018-07-21T05:51:46.868Z,48.59
2018-07-21T05:54:13.921Z,48.50
2018-07-21T05:56:40.272Z,48.39
2018-07-21T05:59:06.602Z,48.37
2018-07-21T06:01:32.980Z,48.27
2018-07-21T06:03:59.324Z,48.29
2018-07-21T06:06:25.765Z,48.19
2018-07-21T06:08:52.091Z,48.31
2018-07-21T06:11:18.439Z,48.35
2018-07-21T06:13:44.776Z,48.56
2018-07-21T06:16:11.182Z,48.67
2018-07-21T06:18:37.530Z,48.96
2018-07-21T06:21:03.906Z,48.86
2018-07-21T06:23:30.266Z,48.70
2018-07-21T06:25:56.656Z,48.79
2018-07-21T06:28:22.996Z,48.83
2018-07-21T06:30:49.316Z,48.66
2018-07-21T06:33:15.647Z,48.76
2018-07-21T06:35:42.026Z,48.86
2018-07-21T06:38:08.405Z,48.73
2018-07-21T06:40:34.724Z,48.79
2018-07-21T06:43:01.100Z,48.79
2018-07-21T06:45:27.766Z,48.72
2018-07-21T06:47:54.151Z,48.65
2018-07-21T06:50:20.487Z,48.60
2018-07-21T06:52:46.825Z,48.53
2018-07-21T06:55:13.178Z,48.40
2018-07-21T06:57:39.564Z,48.21
2018-07-21T07:00:05.947Z,48.28
2018-07-21T07:02:32.276Z,48.27
2018-07-21T07:04:58.642Z,48.25
2018-07-21T07:07:24.970Z,48.12
2018-07-21T07:09:51.331Z,48.13
2018-07-21T07:12:17.663Z,48.10
2018-07-21T07:14:44.029Z,48.03
2018-07-21T07:17:10.368Z,47.97
2018-07-21T07:19:36.703Z,47.92
2018-07-21T07:22:03.027Z,47.87
2018-07-21T07:24:29.363Z,47.92
2018-07-21T07:26:55.728Z,47.83
2018-07-21T07:29:22.139Z,47.78
2018-07-21T07:31:48.512Z,47.68
2018-07-21T07:34:14.849Z,47.79
2018-07-21T07:36:41.172Z,47.58
2018-07-21T07:39:07.544Z,47.53
2018-07-21T07:41:33.863Z,47.21
2018-07-21T07:44:00.205Z,46.96
2018-07-21T07:46:26.588Z,46.73
2018-07-21T07:48:52.971Z,47.15
2018-07-21T07:51:19.304Z,46.80
2018-07-21T07:53:45.661Z,46.76
2018-07-21T07:56:11.992Z,46.54
2018-07-21T07:58:38.315Z,46.44
2018-07-21T08:01:04.643Z,46.80
2018-07-21T08:03:31.035Z,46.72
2018-07-21T08:05:58.103Z,46.57
2018-07-21T08:08:24.513Z,46.22
2018-07-21T08:10:50.819Z,46.02
2018-07-21T08:13:17.191Z,46.02
2018-07-21T08:15:43.519Z,46.19
2018-07-21T08:18:10.911Z,45.99
2018-07-21T08:20:37.314Z,45.96
2018-07-21T08:23:03.674Z,46.19
2018-07-21T08:25:30.007Z,45.72
2018-07-21T08:27:56.384Z,45.74
2018-07-21T08:30:22.739Z,45.51
2018-07-21T08:32:49.111Z,45.97
2018-07-21T08:35:15.431Z,45.81
2018-07-21T08:37:41.754Z,45.79
2018-07-21T08:40:08.132Z,45.32
2018-07-21T08:42:34.495Z,45.29
2018-07-21T08:45:00.861Z,45.22
2018-07-21T08:47:27.203Z,45.28
2018-07-21T08:49:53.619Z,45.41
2018-07-21T08:52:19.937Z,45.48
2018-07-21T08:54:46.319Z,45.22
2018-07-21T08:57:12.679Z,45.30
2018-07-21T08:59:39.015Z,45.19
2018-07-21T09:02:05.344Z,44.82
2018-07-21T09:04:31.680Z,44.74
2018-07-21T09:06:58.063Z,44.66
2018-07-21T09:09:24.435Z,44.22
2018-07-21T09:11:50.764Z,44.67
2018-07-21T09:14:17.143Z,44.67
2018-07-21T09:16:43.478Z,44.29
2018-07-21T09:19:09.863Z,44.30
2018-07-21T09:21:36.282Z,44.33
2018-07-21T09:24:02.601Z,44.35
2018-07-21T09:26:28.987Z,44.32
2018-07-21T09:28:55.350Z,44.31
2018-07-21T09:31:21.723Z,44.32
2018-07-21T09:33:48.085Z,44.54
2018-07-21T09:36:14.414Z,44.10
2018-07-21T09:38:40.764Z,44.18
2018-07-21T09:41:07.172Z,44.22
2018-07-21T09:43:33.682Z,44.32
2018-07-21T09:46:00.112Z,44.13
2018-07-21T09:48:26.484Z,44.08
2018-07-21T09:50:52.794Z,44.21
2018-07-21T09:53:19.121Z,44.22
2018-07-21T09:55:45.526Z,44.15
2018-07-21T09:58:11.865Z,43.90
2018-07-21T10:00:38.212Z,43.94
2018-07-21T10:03:04.612Z,43.48
2018-07-21T10:05:30.938Z,43.38
2018-07-21T10:07:57.393Z,43.42
2018-07-21T10:10:23.755Z,43.44
2018-07-21T10:12:50.087Z,43.51
2018-07-21T10:15:16.410Z,43.42
2018-07-21T10:17:42.792Z,43.44
2018-07-21T10:20:09.215Z,43.36
2018-07-21T10:22:35.547Z,43.07
2018-07-21T10:25:01.906Z,43.12
2018-07-21T10:27:28.267Z,43.01
2018-07-21T10:29:54.703Z,43.23
2018-07-21T10:32:21.055Z,43.10
2018-07-21T10:34:47.420Z,43.27
2018-07-21T10:37:13.762Z,43.09
2018-07-21T10:39:40.200Z,43.05
2018-07-21T10:42:06.561Z,42.77
2018-07-21T10:44:32.963Z,42.91
2018-07-21T10:46:59.363Z,42.89
2018-07-21T10:49:25.765Z,42.84
2018-07-21T10:51:52.132Z,42.63
2018-07-21T10:54:18.559Z,42.65
2018-07-21T10:56:44.994Z,42.86
2018-07-21T10:59:11.372Z,42.56
2018-07-21T11:01:37.718Z,42.66
2018-07-21T11:04:04.062Z,42.66
2018-07-21T11:06:30.420Z,42.87
2018-07-21T11:08:56.745Z,42.69
2018-07-21T11:11:23.076Z,42.42
2018-07-21T11:13:49.424Z,42.34
2018-07-21T11:16:15.811Z,42.38
2018-07-21T11:18:42.178Z,42.41
2018-07-21T11:21:08.538Z,42.61
2018-07-21T11:23:35.040Z,42.33
2018-07-21T11:26:01.424Z,42.27
2018-07-21T11:28:27.866Z,42.45
2018-07-21T11:30:54.271Z,42.58
2018-07-21T11:33:20.670Z,42.37
2018-07-21T11:35:47.045Z,42.34
2018-07-21T11:38:13.427Z,42.54
2018-07-21T11:40:39.765Z,42.45
2018-07-21T11:43:06.119Z,42.35
2018-07-21T11:45:32.538Z,42.21
2018-07-21T11:47:58.953Z,42.13
2018-07-21T11:50:25.340Z,42.07
2018-07-21T11:52:51.743Z,41.98
2018-07-21T11:55:18.102Z,41.84
2018-07-21T11:57:44.497Z,41.84
2018-07-21T12:00:10.867Z,41.68
2018-07-21T12:02:37.254Z,41.78
2018-07-21T12:05:03.636Z,41.77
2018-07-21T12:07:29.993Z,41.97
2018-07-21T12:09:56.346Z,41.71
2018-07-21T12:12:22.696Z,41.49
2018-07-21T12:14:49.079Z,41.48
2018-07-21T12:17:15.445Z,41.40
2018-07-21T12:19:41.790Z,41.40
2018-07-21T12:22:08.110Z,41.23
2018-07-21T12:24:34.497Z,41.36
2018-07-21T12:27:00.922Z,41.28
2018-07-21T12:29:27.347Z,41.22
2018-07-21T12:31:53.700Z,41.26
2018-07-21T12:34:20.278Z,41.16
2018-07-21T12:36:46.563Z,41.28
2018-07-21T12:39:12.920Z,41.45
2018-07-21T12:41:39.279Z,41.25
2018-07-21T12:44:05.644Z,41.10
2018-07-21T12:46:32.002Z,41.13
2018-07-21T12:48:58.321Z,41.15
2018-07-21T12:51:24.667Z,41.26
2018-07-21T12:53:51.031Z,40.87
2018-07-21T12:56:17.371Z,40.91
2018-07-21T12:58:43.846Z,40.88
2018-07-21T13:01:10.214Z,40.92
2018-07-21T13:03:36.567Z,40.82
2018-07-21T13:06:03.055Z,40.68
2018-07-21T13:08:29.454Z,40.62
2018-07-21T13:10:55.949Z,40.60
2018-07-21T13:13:22.435Z,40.46
2018-07-21T13:15:48.808Z,40.62
2018-07-21T13:18:15.210Z,40.42
2018-07-21T13:20:41.593Z,40.67
2018-07-21T13:23:07.930Z,40.42
2018-07-21T13:25:34.275Z,40.33
2018-07-21T13:28:00.689Z,40.28
2018-07-21T13:30:27.043Z,40.30
2018-07-21T13:32:53.408Z,40.36
2018-07-21T13:35:19.861Z,40.39
2018-07-21T13:37:46.307Z,40.51
2018-07-21T13:40:12.678Z,40.56
2018-07-21T13:42:39.039Z,40.52
2018-07-21T13:45:05.375Z,40.53
2018-07-21T13:47:31.698Z,40.49
2018-07-21T13:49:58.022Z,40.46
2018-07-21T13:52:24.458Z,40.52
2018-07-21T13:54:50.876Z,40.53
2018-07-21T13:57:17.216Z,40.70
2018-07-21T13:59:43.563Z,40.51
2018-07-21T14:02:09.968Z,40.64
2018-07-21T14:04:36.284Z,40.36
2018-07-21T14:07:02.619Z,40.17
2018-07-21T14:09:29.008Z,40.14
2018-07-21T14:11:55.360Z,40.13
2018-07-21T14:14:21.699Z,39.93
2018-07-21T14:16:48.144Z,40.03
2018-07-21T14:19:14.502Z,39.81
2018-07-21T14:21:40.861Z,39.81
2018-07-21T14:24:07.359Z,39.95
2018-07-21T14:26:33.732Z,39.93
2018-07-21T14:29:00.083Z,39.82
2018-07-21T14:31:26.505Z,39.46
2018-07-21T14:33:52.879Z,39.76
2018-07-21T14:36:19.339Z,39.33
2018-07-21T14:38:45.614Z,39.43
2018-07-21T14:41:12.044Z,39.27
2018-07-21T14:43:38.367Z,38.98
2018-07-21T14:46:04.726Z,38.99
2018-07-21T14:48:31.185Z,38.98
2018-07-21T14:50:57.530Z,38.90
2018-07-21T14:53:23.852Z,39.01
2018-07-21T14:55:50.184Z,38.91
2018-07-21T14:58:16.637Z,38.78
2018-07-21T15:00:43.057Z,38.92
2018-07-21T15:03:09.456Z,39.15
2018-07-21T15:05:35.838Z,38.90
2018-07-21T15:08:02.196Z,39.21
2018-07-21T15:10:28.581Z,38.74
2018-07-21T15:12:55.136Z,38.63
2018-07-21T15:15:21.679Z,38.71
2018-07-21T15:17:48.130Z,38.65
2018-07-21T15:20:14.495Z,38.77
2018-07-21T15:22:40.935Z,38.69
2018-07-21T15:25:07.279Z,38.88
2018-07-21T15:27:33.667Z,38.64
2018-07-21T15:30:00.024Z,38.57
2018-07-21T15:32:26.437Z,38.69
2018-07-21T15:34:52.787Z,38.41
2018-07-21T15:37:19.165Z,38.65
2018-07-21T15:39:45.511Z,38.38
2018-07-21T15:42:11.931Z,38.40
2018-07-21T15:44:38.279Z,38.32
2018-07-21T15:47:04.676Z,38.47
2018-07-21T15:49:31.025Z,38.39
2018-07-21T15:51:57.360Z,38.51
2018-07-21T15:54:23.716Z,38.47
2018-07-21T15:56:50.112Z,38.48
2018-07-21T15:59:16.509Z,38.62
2018-07-21T16:01:42.843Z,38.63
2018-07-21T16:04:09.212Z,38.72
2018-07-21T16:06:35.555Z,38.62
2018-07-21T16:09:02.101Z,38.83
2018-07-21T16:11:28.433Z,38.82
2018-07-21T16:13:54.811Z,38.91
2018-07-21T16:16:21.165Z,39.01
2018-07-21T16:18:47.554Z,38.99
2018-07-21T16:21:13.970Z,38.94
2018-07-21T16:23:40.300Z,39.01
2018-07-21T16:26:06.631Z,39.14
2018-07-21T16:28:33.131Z,39.03
2018-07-21T16:30:59.558Z,39.45
2018-07-21T16:33:25.977Z,39.22
2018-07-21T16:35:52.349Z,39.22
2018-07-21T16:38:18.746Z,39.28
2018-07-21T16:40:45.132Z,39.39
2018-07-21T16:43:11.486Z,39.25
2018-07-21T16:45:37.964Z,39.46
2018-07-21T16:48:04.334Z,39.39
2018-07-21T16:50:30.725Z,39.50
2018-07-21T16:52:57.267Z,39.62
2018-07-21T16:55:23.644Z,39.74
2018-07-21T16:57:50.048Z,39.68
2018-07-21T17:00:16.389Z,39.91
2018-07-21T17:02:42.790Z,39.89
2018-07-21T17:05:09.172Z,39.94
2018-07-21T17:07:35.558Z,40.23
2018-07-21T17:10:01.932Z,40.36
2018-07-21T17:12:28.328Z,40.24
2018-07-21T17:14:54.750Z,40.60
2018-07-21T17:17:21.150Z,40.39
2018-07-21T17:19:47.523Z,40.49
2018-07-21T17:22:13.899Z,40.63
2018-07-21T17:24:40.256Z,40.56
2018-07-21T17:27:06.815Z,40.78
2018-07-21T17:29:33.369Z,40.83
2018-07-21T17:31:59.744Z,40.89
2018-07-21T17:34:26.121Z,40.93
2018-07-21T17:36:52.625Z,41.24
2018-07-21T17:39:19.301Z,41.10
2018-07-21T17:41:45.711Z,41.30
2018-07-21T17:44:12.099Z,41.54
2018-07-21T17:46:38.475Z,41.54
2018-07-21T17:49:04.814Z,41.33
2018-07-21T17:51:31.197Z,41.73
2018-07-21T17:53:57.625Z,41.93
2018-07-21T17:56:24.024Z,42.19
2018-07-21T17:58:50.404Z,42.39
2018-07-21T18:01:16.737Z,42.76
2018-07-21T18:03:43.173Z,42.55
2018-07-21T18:06:09.547Z,42.63
2018-07-21T18:08:35.904Z,42.69
2018-07-21T18:11:02.262Z,42.60
2018-07-21T18:13:28.734Z,42.49
2018-07-21T18:15:55.084Z,42.30
2018-07-21T18:18:21.434Z,42.93
2018-07-21T18:20:47.836Z,42.96
2018-07-21T18:23:14.194Z,42.93
2018-07-21T18:25:40.575Z,42.90
2018-07-21T18:28:06.943Z,42.87
2018-07-21T18:30:33.437Z,43.10
2018-07-21T18:32:59.870Z,43.35
2018-07-21T18:35:26.255Z,42.93
2018-07-21T18:37:52.657Z,42.93
2018-07-21T18:40:19.068Z,42.85
2018-07-21T18:42:45.470Z,42.90
2018-07-21T18:45:11.871Z,42.89
2018-07-21T18:47:38.272Z,42.66
2018-07-21T18:50:04.815Z,42.87
2018-07-21T18:52:31.247Z,43.26
2018-07-21T18:54:57.634Z,43.52
2018-07-21T18:57:24.021Z,43.90
2018-07-21T18:59:50.485Z,43.30
2018-07-21T19:02:16.991Z,43.54
2018-07-21T19:04:43.392Z,43.51
2018-07-21T19:07:09.808Z,43.36
2018-07-21T19:09:36.163Z,43.41
2018-07-21T19:12:02.601Z,43.34
2018-07-21T19:14:28.953Z,43.25
2018-07-21T19:16:55.440Z,43.51
2018-07-21T19:19:21.796Z,43.64
2018-07-21T19:21:48.144Z,43.19
2018-07-21T19:24:14.487Z,43.61
2018-07-21T19:26:40.882Z,43.13
2018-07-21T19:29:07.239Z,43.52
2018-07-21T19:31:33.591Z,43.50
2018-07-21T19:33:59.926Z,43.73
2018-07-21T19:36:26.287Z,43.34
2018-07-21T19:38:52.657Z,43.19
2018-07-21T19:41:19.054Z,43.12
2018-07-21T19:43:45.458Z,43.42
2018-07-21T19:46:11.817Z,43.64
2018-07-21T19:48:38.169Z,43.51
2018-07-21T19:51:04.613Z,43.64
2018-07-21T19:53:30.930Z,43.36
2018-07-21T19:55:57.323Z,43.11
2018-07-21T19:58:23.680Z,43.32
2018-07-21T20:00:50.076Z,43.31
2018-07-21T20:03:16.443Z,43.22
2018-07-21T20:05:42.775Z,43.39
2018-07-21T20:08:09.129Z,43.51
2018-07-21T20:10:35.471Z,43.48
2018-07-21T20:13:01.870Z,43.74
2018-07-21T20:15:28.235Z,43.64
2018-07-21T20:17:54.621Z,43.48
2018-07-21T20:20:21.056Z,43.21
2018-07-21T20:22:47.451Z,43.44
2018-07-21T20:25:13.860Z,43.55
2018-07-21T20:27:40.213Z,43.59
2018-07-21T20:30:06.574Z,43.51
2018-07-21T20:32:32.939Z,43.34
2018-07-21T20:34:59.314Z,43.26
2018-07-21T20:37:25.689Z,43.57
2018-07-21T20:39:52.032Z,43.62
2018-07-21T20:42:18.597Z,43.40
2018-07-21T20:44:44.953Z,43.49
2018-07-21T20:47:11.330Z,43.70
2018-07-21T20:49:37.678Z,43.58
2018-07-21T20:52:04.031Z,43.38
2018-07-21T20:54:30.450Z,43.28
2018-07-21T20:56:56.811Z,43.32
2018-07-21T20:59:23.141Z,43.15
2018-07-21T21:01:49.598Z,43.42
2018-07-21T21:04:15.940Z,43.57
2018-07-21T21:06:42.305Z,43.80
2018-07-21T21:09:08.643Z,43.93
2018-07-21T21:11:34.968Z,43.35
2018-07-21T21:14:01.293Z,43.49
2018-07-21T21:16:27.650Z,43.30
2018-07-21T21:18:54.062Z,43.74
2018-07-21T21:21:20.715Z,43.55
2018-07-21T21:23:47.199Z,43.57
2018-07-21T21:26:13.534Z,43.42
2018-07-21T21:28:39.995Z,43.50
2018-07-21T21:31:06.372Z,43.68
2018-07-21T21:33:32.774Z,43.54
2018-07-21T21:35:59.093Z,43.60
2018-07-21T21:38:25.451Z,43.71
2018-07-21T21:40:51.878Z,43.71
2018-07-21T21:43:18.300Z,43.69
2018-07-21T21:45:44.633Z,43.72
2018-07-21T21:48:11.048Z,43.88
2018-07-21T21:50:37.375Z,43.84
2018-07-21T21:53:04.434Z,43.81
2018-07-21T21:55:30.788Z,44.07
2018-07-21T21:57:57.202Z,44.06
2018-07-21T22:00:23.610Z,43.87
2018-07-21T22:02:49.939Z,44.04
2018-07-21T22:05:16.404Z,44.06
2018-07-21T22:07:42.832Z,43.67
2018-07-21T22:10:09.226Z,43.87
2018-07-21T22:12:35.596Z,43.79
2018-07-21T22:15:02.000Z,43.80
2018-07-21T22:17:28.326Z,43.84
2018-07-21T22:19:54.707Z,43.64
2018-07-21T22:22:21.047Z,43.60
2018-07-21T22:24:47.547Z,43.74
2018-07-21T22:27:13.965Z,43.91
2018-07-21T22:29:40.328Z,44.12
2018-07-21T22:32:06.679Z,43.76
2018-07-21T22:34:33.032Z,44.11
2018-07-21T22:36:59.436Z,44.26
2018-07-21T22:39:25.807Z,44.30
2018-07-21T22:41:52.139Z,43.90
2018-07-21T22:44:18.496Z,44.16
2018-07-21T22:46:44.840Z,44.35
2018-07-21T22:49:11.207Z,44.69
2018-07-21T22:51:37.597Z,44.73
2018-07-21T22:54:03.969Z,44.56
2018-07-21T22:56:30.372Z,44.49
2018-07-21T22:58:56.702Z,44.58
2018-07-21T23:01:23.085Z,44.50
2018-07-21T23:03:49.438Z,44.25
2018-07-21T23:06:15.833Z,44.40
2018-07-21T23:08:42.186Z,44.33
2018-07-21T23:11:08.551Z,44.48
2018-07-21T23:13:34.942Z,45.02
2018-07-21T23:16:01.295Z,44.95
2018-07-21T23:18:27.679Z,44.92
2018-07-21T23:20:54.185Z,44.84
2018-07-21T23:23:20.716Z,44.80
2018-07-21T23:25:47.148Z,44.92
2018-07-21T23:28:13.579Z,44.86
2018-07-21T23:30:39.968Z,44.86
2018-07-21T23:33:06.316Z,44.70
2018-07-21T23:35:32.717Z,45.04
2018-07-21T23:37:59.112Z,44.82
2018-07-21T23:40:25.623Z,44.95
2018-07-21T23:42:51.967Z,44.90
2018-07-21T23:45:18.303Z,44.70
2018-07-21T23:47:44.635Z,44.93
2018-07-21T23:50:11.020Z,44.87
2018-07-21T23:52:37.396Z,44.96
2018-07-21T23:55:03.809Z,45.19
2018-07-21T23:57:30.170Z,45.39
2018-07-21T23:59:56.577Z,45.76
